Time;durP1;ratioP1;P1;durP2;ratioP2;P2;SDS_P1;SDS_P2;PMS_P1;PMS_P2;Temp;Humidity;BMP_temperature;BMP_pressure;BME280_temperature;BME280_humidity;BME280_pressure;Samples;Min_cycle;Max_cycle;Signal;HPM_P1;HPM_P2
2024/04/18 00:01:28;;;;;;;12.30;6.00;;;6.30;98.00;;;;;;5378982;26;21042;-87
2024/04/18 00:03:57;;;;;;;10.77;5.77;;;6.20;98.00;;;;;;5377904;26;20520;-87
2024/04/18 00:06:23;;;;;;;10.87;5.90;;;6.30;98.00;;;;;;5378896;26;21077;-87
2024/04/18 00:08:54;;;;;;;11.20;5.43;;;6.30;98.00;;;;;;5378874;26;20578;-88
2024/04/18 00:11:20;;;;;;;14.60;6.23;;;6.20;98.00;;;;;;5378661;26;20522;-87
2024/04/18 00:13:49;;;;;;;16.60;5.87;;;6.30;98.00;;;;;;5378238;26;20542;-88
2024/04/18 00:16:15;;;;;;;10.23;5.50;;;6.30;98.00;;;;;;5377942;26;20454;-88
2024/04/18 00:18:44;;;;;;;11.77;5.93;;;6.10;98.00;;;;;;5378433;26;20523;-87
2024/04/18 00:21:10;;;;;;;12.40;5.90;;;6.10;98.00;;;;;;5378492;26;20513;-87
2024/04/18 00:23:38;;;;;;;11.93;6.37;;;6.00;98.00;;;;;;5377650;26;20533;-87
2024/04/18 00:26:07;;;;;;;12.93;6.03;;;6.00;98.00;;;;;;5378392;26;20463;-87
2024/04/18 00:28:36;;;;;;;12.70;6.23;;;6.10;98.00;;;;;;5378637;26;20478;-88
2024/04/18 00:31:02;;;;;;;11.20;6.00;;;6.20;98.00;;;;;;5378611;26;20533;-87
2024/04/18 00:33:31;;;;;;;11.90;5.70;;;6.20;98.00;;;;;;5377344;26;20798;-87
2024/04/18 00:35:57;;;;;;;10.77;5.60;;;6.30;98.00;;;;;;5378649;26;21112;-87
2024/04/18 00:38:25;;;;;;;12.30;5.90;;;6.30;98.00;;;;;;5378274;26;20482;-87
2024/04/18 00:40:51;;;;;;;10.37;5.60;;;6.40;98.00;;;;;;5378873;26;20527;-87
2024/04/18 00:43:23;;;;;;;13.90;6.80;;;6.30;98.00;;;;;;5377222;26;20493;-87
2024/04/18 00:45:50;;;;;;;10.73;5.70;;;6.30;98.00;;;;;;5378012;26;20500;-87
2024/04/18 00:48:19;;;;;;;10.57;5.30;;;6.30;98.00;;;;;;5378012;26;20576;-87
2024/04/18 00:50:45;;;;;;;13.60;6.57;;;6.20;98.00;;;;;;5378059;26;20554;-87
2024/04/18 00:53:14;;;;;;;10.87;6.00;;;6.30;98.00;;;;;;5377281;26;20494;-87
2024/04/18 00:55:44;;;;;;;12.80;6.53;;;6.30;98.00;;;;;;5378069;26;20471;-87
2024/04/18 00:58:11;;;;;;;11.10;5.63;;;6.30;98.00;;;;;;5378343;26;20809;-87
2024/04/18 01:00:43;;;;;;;10.10;5.70;;;6.40;98.00;;;;;;5377527;26;20553;-87
2024/04/18 01:03:09;;;;;;;13.90;6.13;;;6.30;98.00;;;;;;5377372;26;20500;-87
2024/04/18 01:05:38;;;;;;;12.63;6.27;;;6.20;98.00;;;;;;5378253;26;20481;-87
2024/04/18 01:08:05;;;;;;;13.40;6.80;;;6.10;98.00;;;;;;5378021;26;20766;-87
2024/04/18 01:10:33;;;;;;;16.70;6.60;;;6.00;98.00;;;;;;5377760;26;20489;-87
2024/04/18 01:13:00;;;;;;;13.07;6.40;;;6.00;98.00;;;;;;5377354;26;20460;-87
2024/04/18 01:15:29;;;;;;;13.80;6.80;;;6.00;98.00;;;;;;5377836;26;20887;-87
2024/04/18 01:17:58;;;;;;;13.40;7.00;;;6.00;98.00;;;;;;5378147;26;20465;-87
2024/04/18 01:20:27;;;;;;;12.73;6.20;;;6.10;98.00;;;;;;5378407;26;20519;-87
2024/04/18 01:22:53;;;;;;;13.33;6.43;;;6.10;98.00;;;;;;5377121;26;20499;-87
2024/04/18 01:25:22;;;;;;;12.07;6.13;;;6.30;98.00;;;;;;5374304;26;20461;-86
2024/04/18 01:27:51;;;;;;;13.27;6.63;;;6.30;98.00;;;;;;5377928;26;20462;-87
2024/04/18 01:30:19;;;;;;;14.60;6.57;;;6.20;98.00;;;;;;5381389;26;20550;-87
2024/04/18 01:32:46;;;;;;;13.70;6.67;;;6.20;98.00;;;;;;5380304;26;20461;-87
2024/04/18 01:35:14;;;;;;;15.07;6.73;;;6.40;98.00;;;;;;5380784;26;20543;-87
2024/04/18 01:37:40;;;;;;;10.77;6.00;;;6.30;98.00;;;;;;5381282;26;20450;-87
2024/04/18 01:40:10;;;;;;;14.00;6.77;;;6.40;98.00;;;;;;5381040;26;20953;-88
2024/04/18 01:42:36;;;;;;;12.80;6.40;;;6.50;98.00;;;;;;5380494;26;20526;-86
2024/04/18 01:45:09;;;;;;;12.00;6.30;;;6.40;98.00;;;;;;5381285;26;20566;-87
2024/04/18 01:47:35;;;;;;;11.13;5.90;;;6.40;98.00;;;;;;5381024;26;20502;-87
2024/04/18 01:50:03;;;;;;;11.83;6.47;;;6.40;98.00;;;;;;5380793;26;20477;-87
2024/04/18 01:52:29;;;;;;;12.63;6.17;;;6.40;98.00;;;;;;5380866;26;20494;-86
2024/04/18 01:54:59;;;;;;;12.03;6.13;;;6.40;98.00;;;;;;5380436;26;20469;-87
2024/04/18 01:57:25;;;;;;;15.53;7.07;;;6.40;98.00;;;;;;5380989;26;20464;-87
2024/04/18 01:59:54;;;;;;;14.87;6.53;;;6.30;98.00;;;;;;5380264;26;21040;-87
2024/04/18 02:02:23;;;;;;;15.60;7.07;;;6.30;98.00;;;;;;5380866;26;20505;-87
2024/04/18 02:04:52;;;;;;;12.53;6.40;;;6.30;98.00;;;;;;5379708;26;20766;-87
2024/04/18 02:07:19;;;;;;;12.50;6.70;;;6.10;98.00;;;;;;5380462;26;20518;-87
2024/04/18 02:09:47;;;;;;;14.47;7.07;;;6.10;98.00;;;;;;5381298;26;20450;-87
2024/04/18 02:12:13;;;;;;;13.07;6.60;;;6.00;98.00;;;;;;5380638;26;20988;-87
2024/04/18 02:14:43;;;;;;;11.63;6.13;;;6.10;98.00;;;;;;5379811;26;20540;-87
2024/04/18 02:17:09;;;;;;;12.57;6.40;;;6.10;98.00;;;;;;5380579;26;20457;-87
2024/04/18 02:19:40;;;;;;;10.90;5.97;;;6.10;98.00;;;;;;5380369;26;20539;-87
2024/04/18 02:22:06;;;;;;;11.37;6.27;;;6.10;98.00;;;;;;5380218;26;20463;-87
2024/04/18 02:24:39;;;;;;;14.00;6.40;;;6.10;98.00;;;;;;5379188;26;20502;-87
2024/04/18 02:27:05;;;;;;;12.53;6.80;;;6.20;98.00;;;;;;5380457;26;20506;-87
2024/04/18 02:29:33;;;;;;;15.80;7.07;;;6.30;98.00;;;;;;5379996;26;20465;-87
2024/04/18 02:32:00;;;;;;;10.33;6.10;;;6.20;98.00;;;;;;5380645;26;20974;-87
2024/04/18 02:34:28;;;;;;;12.17;6.93;;;6.20;98.00;;;;;;5379201;26;20895;-87
2024/04/18 02:36:57;;;;;;;12.73;6.43;;;6.40;98.00;;;;;;5380091;26;20458;-87
2024/04/18 02:39:26;;;;;;;13.80;6.77;;;6.40;98.00;;;;;;5379463;26;20479;-87
2024/04/18 02:41:52;;;;;;;14.97;6.90;;;6.30;98.00;;;;;;5380001;26;21097;-88
2024/04/18 02:44:23;;;;;;;13.90;7.23;;;6.30;98.00;;;;;;5379444;26;20530;-86
2024/04/18 02:46:49;;;;;;;14.80;6.83;;;6.40;98.00;;;;;;5380077;26;20509;-86
2024/04/18 02:49:18;;;;;;;11.10;5.83;;;6.30;98.00;;;;;;5379612;26;20525;-87
2024/04/18 02:51:44;;;;;;;14.60;7.37;;;6.30;98.00;;;;;;5380312;26;20524;-87
2024/04/18 02:54:15;;;;;;;14.60;6.70;;;6.10;98.00;;;;;;5378748;26;20467;-87
2024/04/18 02:56:41;;;;;;;13.23;6.73;;;6.10;98.00;;;;;;5379893;26;20517;-86
2024/04/18 02:59:10;;;;;;;16.20;7.10;;;6.10;98.00;;;;;;5379498;26;20450;-87
2024/04/18 03:01:36;;;;;;;14.63;6.80;;;6.10;98.00;;;;;;5379398;26;20481;-87
2024/04/18 03:04:05;;;;;;;13.10;6.50;;;6.10;98.00;;;;;;5380261;26;20465;-87
2024/04/18 03:06:31;;;;;;;14.47;7.13;;;6.20;98.00;;;;;;5381011;26;20466;-86
2024/04/18 03:08:59;;;;;;;13.27;7.60;;;6.20;98.00;;;;;;5380367;26;21122;-86
2024/04/18 03:11:28;;;;;;;14.20;7.17;;;6.20;98.00;;;;;;5380261;26;20514;-86
2024/04/18 03:13:57;;;;;;;13.47;6.30;;;6.30;98.00;;;;;;5378605;26;20522;-85
2024/04/18 03:16:23;;;;;;;13.40;6.77;;;6.30;98.00;;;;;;5379467;26;20463;-85
2024/04/18 03:18:51;;;;;;;12.13;6.70;;;6.20;98.00;;;;;;5379671;26;20553;-85
2024/04/18 03:21:18;;;;;;;16.57;7.20;;;6.10;98.00;;;;;;5379740;26;21017;-86
2024/04/18 03:23:46;;;;;;;14.00;6.90;;;6.20;98.00;;;;;;5378578;26;20920;-85
2024/04/18 03:26:12;;;;;;;15.50;6.70;;;6.20;98.00;;;;;;5379523;26;20592;-86
2024/04/18 03:28:44;;;;;;;13.93;6.70;;;6.20;98.00;;;;;;5379204;26;20475;-86
2024/04/18 03:31:11;;;;;;;12.87;6.67;;;6.10;98.00;;;;;;5379567;26;20847;-86
2024/04/18 03:33:40;;;;;;;12.70;6.93;;;6.00;98.00;;;;;;5378812;26;20498;-86
2024/04/18 03:36:08;;;;;;;15.60;7.63;;;6.10;98.00;;;;;;5379669;26;20450;-86
2024/04/18 03:38:43;;;;;;;15.93;7.23;;;6.10;98.00;;;;;;5379466;26;21010;-86
2024/04/18 03:41:14;;;;;;;15.47;7.30;;;6.10;98.00;;;;;;5380437;26;20474;-87
2024/04/18 03:43:53;;;;;;;26.30;8.17;;;6.10;98.00;;;;;;5378271;26;20462;-87
2024/04/18 03:46:25;;;;;;;14.70;7.10;;;6.10;98.00;;;;;;5378840;26;20466;-87
2024/04/18 03:48:53;;;;;;;14.77;7.03;;;6.10;98.00;;;;;;5379452;26;20471;-86
2024/04/18 03:51:20;;;;;;;13.77;6.80;;;6.10;98.00;;;;;;5378523;26;20514;-86
2024/04/18 03:53:48;;;;;;;21.30;7.67;;;6.20;98.00;;;;;;5378844;26;20884;-84
2024/04/18 03:56:14;;;;;;;16.07;7.53;;;6.20;98.00;;;;;;5379954;26;20467;-85
2024/04/18 03:58:46;;;;;;;18.13;6.90;;;6.20;98.00;;;;;;5379966;26;20517;-85
2024/04/18 04:01:11;;;;;;;16.27;6.80;;;6.20;98.00;;;;;;5379502;26;20467;-85
2024/04/18 04:03:40;;;;;;;14.03;6.30;;;6.00;98.00;;;;;;5377967;26;20512;-85
2024/04/18 04:06:06;;;;;;;17.23;7.40;;;6.00;98.00;;;;;;5379005;26;20456;-85
2024/04/18 04:08:35;;;;;;;13.90;6.60;;;6.00;98.00;;;;;;5379239;26;20472;-85
2024/04/18 04:11:01;;;;;;;14.60;7.00;;;6.00;98.00;;;;;;5378457;26;20475;-85
2024/04/18 04:13:30;;;;;;;13.63;6.50;;;6.00;98.00;;;;;;5378314;26;21052;-86
2024/04/18 04:15:58;;;;;;;14.60;6.97;;;6.10;98.00;;;;;;5379244;26;20496;-86
2024/04/18 04:18:27;;;;;;;15.43;7.30;;;6.10;98.00;;;;;;5379253;26;20583;-85
2024/04/18 04:20:53;;;;;;;14.00;6.90;;;6.10;98.00;;;;;;5380546;26;20473;-85
2024/04/18 04:23:22;;;;;;;14.13;6.80;;;6.10;98.00;;;;;;5377615;26;20452;-85
2024/04/18 04:25:48;;;;;;;15.77;7.20;;;6.00;98.00;;;;;;5378567;26;20897;-85
2024/04/18 04:28:16;;;;;;;15.97;7.30;;;6.00;98.00;;;;;;5378281;26;20475;-85
2024/04/18 04:30:42;;;;;;;19.00;7.90;;;6.00;98.00;;;;;;5378705;26;20805;-85
2024/04/18 04:33:14;;;;;;;15.60;7.40;;;6.10;98.00;;;;;;5377801;26;20502;-85
2024/04/18 04:35:40;;;;;;;15.40;7.20;;;6.20;98.00;;;;;;5378957;26;20491;-86
2024/04/18 04:38:08;;;;;;;15.47;7.17;;;6.20;98.00;;;;;;5378811;26;20527;-85
2024/04/18 04:40:34;;;;;;;13.77;6.73;;;6.10;98.00;;;;;;5378507;26;20482;-85
2024/04/18 04:43:03;;;;;;;15.87;7.10;;;6.10;98.00;;;;;;5377302;26;20528;-84
2024/04/18 04:45:29;;;;;;;14.83;7.00;;;6.20;98.00;;;;;;5377664;26;21013;-85
2024/04/18 04:47:58;;;;;;;15.43;7.23;;;6.20;98.00;;;;;;5379012;26;20528;-85
2024/04/18 04:50:28;;;;;;;21.30;7.57;;;6.20;98.00;;;;;;5379526;26;20467;-85
2024/04/18 04:52:57;;;;;;;17.80;7.93;;;6.10;98.00;;;;;;5378944;26;21424;-85
2024/04/18 04:55:23;;;;;;;16.40;7.87;;;6.20;98.00;;;;;;5379205;26;20451;-84
2024/04/18 04:57:51;;;;;;;11.53;6.30;;;6.20;98.00;;;;;;5379728;26;20470;-84
2024/04/18 05:00:17;;;;;;;14.73;6.83;;;6.20;98.00;;;;;;5378930;26;20527;-86
2024/04/18 05:02:46;;;;;;;14.10;6.73;;;6.20;98.00;;;;;;5377948;26;20473;-85
2024/04/18 05:05:12;;;;;;;16.17;7.60;;;6.30;98.00;;;;;;5379199;26;20454;-85
2024/04/18 05:07:43;;;;;;;15.83;7.10;;;6.40;98.00;;;;;;5378766;26;20472;-86
2024/04/18 05:10:12;;;;;;;14.27;7.10;;;6.50;98.00;;;;;;5378905;26;20816;-85
2024/04/18 05:12:38;;;;;;;15.63;7.77;;;6.40;98.00;;;;;;5378231;26;20462;-85
2024/04/18 05:15:08;;;;;;;12.60;6.63;;;6.50;98.00;;;;;;5378368;26;20580;-85
2024/04/18 05:17:34;;;;;;;14.60;7.27;;;6.60;98.00;;;;;;5378712;26;20514;-85
2024/04/18 05:20:03;;;;;;;15.47;7.30;;;6.70;98.00;;;;;;5378497;26;20495;-85
2024/04/18 05:22:29;;;;;;;17.87;7.60;;;6.70;98.00;;;;;;5378501;26;20466;-85
2024/04/18 05:25:00;;;;;;;13.40;6.53;;;6.70;98.00;;;;;;5377401;26;20838;-86
2024/04/18 05:27:26;;;;;;;15.53;6.43;;;6.60;98.00;;;;;;5378521;26;20456;-85
2024/04/18 05:32:40;;;;;;;11.77;5.73;;;6.70;98.00;;;;;;5380831;26;21050;-86
2024/04/18 05:35:09;;;;;;;10.17;5.50;;;6.80;98.00;;;;;;5377986;26;20509;-85
2024/04/18 05:37:37;;;;;;;14.60;6.70;;;6.90;98.00;;;;;;5378580;26;20496;-85
2024/04/18 05:40:10;;;;;;;12.43;6.23;;;6.80;98.00;;;;;;5377996;26;20513;-85
2024/04/18 05:42:39;;;;;;;11.53;5.90;;;6.70;98.00;;;;;;5377914;26;20509;-85
2024/04/18 05:45:08;;;;;;;11.93;6.37;;;6.70;98.00;;;;;;5377896;26;20816;-86
2024/04/18 05:47:37;;;;;;;12.20;5.73;;;6.70;98.00;;;;;;5378202;26;20458;-85
2024/04/18 05:50:07;;;;;;;11.17;5.93;;;6.80;98.00;;;;;;5377793;26;20844;-85
2024/04/18 05:52:33;;;;;;;13.77;5.40;;;6.90;98.00;;;;;;5377804;26;20477;-85
2024/04/18 05:55:02;;;;;;;11.87;5.83;;;6.90;98.00;;;;;;5376892;26;20473;-86
2024/04/18 05:57:33;;;;;;;11.40;5.93;;;6.90;98.00;;;;;;5377951;26;20565;-86
2024/04/18 06:00:02;;;;;;;16.00;5.63;;;6.90;98.00;;;;;;5377307;26;20819;-86
2024/04/18 06:02:31;;;;;;;16.20;6.30;;;7.00;98.00;;;;;;5377634;26;20462;-86
2024/04/18 06:05:00;;;;;;;12.77;6.20;;;7.10;98.00;;;;;;5376607;26;20799;-86
2024/04/18 06:07:26;;;;;;;9.77;5.70;;;7.10;98.00;;;;;;5377598;26;20451;-86
2024/04/18 06:09:54;;;;;;;13.60;6.50;;;7.10;98.00;;;;;;5377562;26;20852;-86
2024/04/18 06:12:23;;;;;;;13.47;6.87;;;7.20;98.00;;;;;;5377895;26;20446;-86
2024/04/18 06:14:54;;;;;;;14.40;7.23;;;7.10;98.00;;;;;;5378929;26;20544;-85
2024/04/18 06:17:23;;;;;;;11.90;5.97;;;7.10;98.00;;;;;;5381685;26;20775;-84
2024/04/18 06:19:52;;;;;;;15.13;5.80;;;7.00;98.00;;;;;;5381706;26;20539;-86
2024/04/18 06:22:20;;;;;;;10.60;5.70;;;6.90;98.00;;;;;;5381233;26;20482;-86
2024/04/18 06:24:50;;;;;;;14.00;6.20;;;6.90;98.00;;;;;;5380344;26;20470;-86
2024/04/18 06:27:18;;;;;;;10.07;5.43;;;6.90;98.00;;;;;;5381140;26;20999;-86
2024/04/18 06:29:48;;;;;;;11.90;5.90;;;7.00;98.00;;;;;;5380894;26;20458;-86
2024/04/18 06:32:20;;;;;;;12.57;6.03;;;7.10;98.00;;;;;;5380933;26;20706;-85
2024/04/18 06:34:48;;;;;;;11.60;6.40;;;7.20;98.00;;;;;;5380559;26;20459;-86
2024/04/18 06:37:17;;;;;;;13.60;6.00;;;7.40;98.00;;;;;;5381275;26;20504;-86
2024/04/18 06:39:46;;;;;;;12.17;5.87;;;7.40;98.00;;;;;;5380998;26;20457;-86
2024/04/18 06:42:14;;;;;;;11.83;5.93;;;7.30;98.00;;;;;;5381856;26;20786;-86
2024/04/18 06:44:43;;;;;;;10.20;5.70;;;7.40;98.00;;;;;;5380542;26;20514;-86
2024/04/18 06:47:12;;;;;;;10.97;5.90;;;7.40;98.00;;;;;;5381303;26;20506;-86
2024/04/18 06:49:43;;;;;;;9.73;5.30;;;7.40;98.00;;;;;;5381236;26;20842;-86
2024/04/18 06:52:11;;;;;;;11.97;6.00;;;7.50;98.00;;;;;;5381069;26;20467;-85
2024/04/18 06:54:40;;;;;;;12.63;5.93;;;7.60;98.00;;;;;;5380339;26;20497;-86
2024/04/18 06:57:09;;;;;;;11.70;5.30;;;7.60;98.00;;;;;;5380531;26;20872;-86
2024/04/18 06:59:38;;;;;;;11.40;5.70;;;7.70;98.00;;;;;;5380630;26;20462;-86
2024/04/18 07:02:06;;;;;;;12.17;5.50;;;7.70;98.00;;;;;;5380817;26;20450;-85
2024/04/18 07:04:35;;;;;;;10.43;5.27;;;7.70;98.00;;;;;;5380124;26;20989;-86
2024/04/18 07:07:08;;;;;;;11.20;5.40;;;7.70;98.00;;;;;;5380907;26;20455;-86
2024/04/18 07:09:36;;;;;;;9.77;5.60;;;7.70;98.00;;;;;;5380797;26;20458;-86
2024/04/18 07:12:05;;;;;;;12.03;5.97;;;7.80;98.00;;;;;;5381097;26;20455;-87
2024/04/18 07:14:34;;;;;;;10.87;5.50;;;7.70;98.00;;;;;;5379594;26;20456;-85
2024/04/18 07:17:03;;;;;;;10.63;5.80;;;7.60;98.00;;;;;;5380636;26;20466;-86
2024/04/18 07:19:29;;;;;;;10.53;5.27;;;7.60;98.00;;;;;;5380010;26;20515;-86
2024/04/18 07:21:59;;;;;;;9.03;4.97;;;7.70;98.00;;;;;;5380276;26;21073;-86
2024/04/18 07:24:30;;;;;;;10.83;5.30;;;7.80;98.00;;;;;;5379304;26;20595;-86
2024/04/18 07:26:58;;;;;;;10.00;5.00;;;7.90;98.00;;;;;;5380694;26;20447;-85
2024/04/18 07:29:27;;;;;;;7.37;4.73;;;8.00;98.00;;;;;;5380436;26;20502;-86
2024/04/18 07:31:56;;;;;;;8.63;4.40;;;8.10;98.00;;;;;;5380168;26;20459;-86
2024/04/18 07:34:24;;;;;;;9.30;4.73;;;8.20;98.00;;;;;;5378893;26;20788;-85
2024/04/18 07:36:53;;;;;;;8.00;4.47;;;8.30;98.00;;;;;;5380348;26;20436;-85
2024/04/18 07:39:22;;;;;;;7.03;4.33;;;8.40;98.00;;;;;;5380214;26;20507;-86
2024/04/18 07:41:53;;;;;;;10.13;5.50;;;8.60;98.00;;;;;;5379789;26;21165;-86
2024/04/18 07:44:22;;;;;;;8.27;4.60;;;8.60;98.00;;;;;;5379046;26;20506;-86
2024/04/18 07:46:50;;;;;;;7.70;4.70;;;8.70;98.00;;;;;;5380254;26;21003;-86
2024/04/18 07:49:19;;;;;;;8.17;4.80;;;8.70;98.00;;;;;;5379683;26;20484;-85
2024/04/18 07:51:48;;;;;;;8.50;4.97;;;8.70;98.00;;;;;;5380133;26;20533;-86
2024/04/18 07:54:18;;;;;;;9.87;5.40;;;8.70;98.00;;;;;;5379239;26;20463;-86
2024/04/18 07:56:46;;;;;;;7.00;4.40;;;8.60;98.00;;;;;;5380045;26;20572;-86
2024/04/18 07:59:18;;;;;;;9.37;5.03;;;8.50;98.00;;;;;;5379857;26;20501;-86
2024/04/18 08:01:46;;;;;;;9.10;4.90;;;8.40;98.00;;;;;;5379818;26;20477;-86
2024/04/18 08:04:15;;;;;;;8.93;4.73;;;8.30;98.00;;;;;;5378824;26;21034;-86
2024/04/18 08:06:44;;;;;;;10.83;5.03;;;8.30;98.00;;;;;;5379724;26;20519;-85
2024/04/18 08:09:12;;;;;;;8.07;4.97;;;8.30;98.00;;;;;;5379856;26;20447;-86
2024/04/18 08:11:41;;;;;;;8.93;4.97;;;8.20;98.00;;;;;;5380591;26;20872;-85
2024/04/18 08:14:10;;;;;;;8.83;5.20;;;8.30;98.00;;;;;;5378654;26;21055;-86
2024/04/18 08:16:41;;;;;;;8.77;4.80;;;8.30;98.00;;;;;;5379878;26;20463;-86
2024/04/18 08:19:09;;;;;;;8.03;4.23;;;8.40;98.00;;;;;;5379382;26;20456;-86
2024/04/18 08:21:38;;;;;;;9.07;4.50;;;8.40;98.00;;;;;;5379419;26;20521;-86
2024/04/18 08:24:18;;;;;;;7.43;4.20;;;8.30;98.00;;;;;;5378555;26;20832;-85
2024/04/18 08:26:46;;;;;;;8.17;4.23;;;8.40;98.00;;;;;;5379682;26;20568;-85
2024/04/18 08:29:16;;;;;;;8.00;4.43;;;8.50;98.00;;;;;;5379452;26;20547;-86
2024/04/18 08:31:47;;;;;;;12.70;4.60;;;8.60;98.00;;;;;;5379795;26;20791;-86
2024/04/18 08:34:16;;;;;;;9.57;4.40;;;8.60;98.00;;;;;;5379099;26;20512;-86
2024/04/18 08:36:45;;;;;;;10.80;4.60;;;8.80;98.00;;;;;;5379416;26;20463;-86
2024/04/18 08:39:15;;;;;;;10.33;5.60;;;8.80;98.00;;;;;;5379727;26;20454;-86
2024/04/18 08:41:45;;;;;;;8.80;4.97;;;8.80;98.00;;;;;;5379331;26;20520;-86
2024/04/18 08:44:14;;;;;;;8.90;5.20;;;8.90;98.00;;;;;;5378573;26;20506;-86
2024/04/18 08:46:45;;;;;;;10.33;5.10;;;8.90;98.00;;;;;;5379476;26;20494;-86
2024/04/18 08:49:17;;;;;;;11.50;5.43;;;9.00;98.00;;;;;;5379212;26;20468;-86
2024/04/18 08:51:47;;;;;;;10.67;5.53;;;8.80;98.00;;;;;;5379170;26;20464;-86
2024/04/18 08:54:16;;;;;;;11.50;6.03;;;8.50;98.00;;;;;;5377921;26;20750;-86
2024/04/18 08:56:50;;;;;;;11.90;5.30;;;8.30;98.00;;;;;;5379023;26;20531;-86
2024/04/18 08:59:22;;;;;;;12.43;6.07;;;8.40;98.00;;;;;;5379097;26;20448;-86
2024/04/18 09:01:51;;;;;;;9.67;5.17;;;8.50;98.00;;;;;;5378679;26;20519;-85
2024/04/18 09:04:22;;;;;;;9.00;5.37;;;8.60;98.00;;;;;;5378082;26;20455;-86
2024/04/18 09:06:51;;;;;;;10.93;5.33;;;8.60;98.00;;;;;;5379464;26;20500;-86
2024/04/18 09:09:20;;;;;;;11.30;5.03;;;8.90;98.00;;;;;;5378939;26;20452;-85
2024/04/18 09:11:48;;;;;;;12.10;4.97;;;9.10;98.00;;;;;;5379156;26;20522;-86
2024/04/18 09:14:17;;;;;;;9.07;5.10;;;9.20;98.00;;;;;;5378013;26;21014;-86
2024/04/18 09:16:46;;;;;;;11.10;5.30;;;9.50;98.00;;;;;;5379005;26;20972;-86
2024/04/18 09:19:16;;;;;;;11.80;5.60;;;9.70;98.00;;;;;;5378674;26;21045;-85
2024/04/18 09:21:54;;;;;;;9.33;5.30;;;9.90;98.00;;;;;;5378757;26;20479;-86
2024/04/18 09:27:43;;;;;;;8.60;4.70;;;10.20;98.00;;;;;;5370424;26;20492;-86
2024/04/18 09:30:13;;;;;;;7.67;4.50;;;10.30;98.00;;;;;;5378175;26;21086;-86
2024/04/18 09:47:08;;;;;;;9.63;5.00;;;10.40;98.00;;;;;;5274420;27;20554;-86
2024/04/18 09:49:38;;;;;;;10.77;5.20;;;10.10;98.00;;;;;;5290288;26;20453;-86
2024/04/18 09:52:08;;;;;;;8.23;4.90;;;10.30;98.00;;;;;;5381540;26;20788;-86
2024/04/18 09:54:38;;;;;;;14.43;5.60;;;10.60;98.00;;;;;;5381223;26;20510;-86
2024/04/18 09:57:10;;;;;;;10.03;5.20;;;10.70;98.00;;;;;;5382622;26;20464;-85
2024/04/18 09:59:41;;;;;;;11.07;5.20;;;11.00;98.00;;;;;;5382494;26;20575;-86
2024/04/18 10:02:14;;;;;;;9.87;5.30;;;10.90;98.00;;;;;;5381722;26;20550;-86
2024/04/18 10:04:45;;;;;;;9.13;4.90;;;11.10;98.00;;;;;;5380087;26;20456;-86
2024/04/18 10:07:17;;;;;;;9.70;5.77;;;11.30;98.00;;;;;;5381587;26;20496;-85
2024/04/18 10:09:48;;;;;;;12.07;5.30;;;11.30;98.00;;;;;;5381382;26;20456;-86
2024/04/18 10:12:18;;;;;;;9.53;5.50;;;11.50;98.00;;;;;;5381325;26;20466;-86
2024/04/18 10:14:46;;;;;;;11.67;5.80;;;11.70;98.00;;;;;;5380074;26;20465;-86
2024/04/18 10:17:27;;;;;;;9.20;5.00;;;11.50;98.00;;;;;;5381112;26;20498;-86
2024/04/18 10:19:56;;;;;;;12.27;5.70;;;11.20;98.00;;;;;;5381417;26;20518;-86
2024/04/18 10:22:28;;;;;;;10.50;5.53;;;11.00;98.00;;;;;;5382133;26;20516;-86
2024/04/18 10:24:57;;;;;;;9.87;5.40;;;10.80;98.00;;;;;;5380781;26;20483;-86
2024/04/18 10:27:26;;;;;;;7.53;4.70;;;10.40;98.00;;;;;;5382114;26;20464;-87
2024/04/18 10:29:56;;;;;;;8.20;4.40;;;10.20;98.00;;;;;;5381618;26;20526;-86
2024/04/18 10:32:29;;;;;;;10.20;5.10;;;9.90;98.00;;;;;;5381352;26;20516;-86
2024/04/18 10:35:00;;;;;;;8.30;4.27;;;9.50;98.00;;;;;;5380520;26;20467;-85
2024/04/18 10:37:29;;;;;;;8.03;4.60;;;9.30;98.00;;;;;;5380988;26;20456;-86
2024/04/18 10:39:59;;;;;;;8.40;4.57;;;8.90;98.00;;;;;;5381165;26;20463;-86
2024/04/18 10:42:25;;;;;;;8.37;4.33;;;8.90;98.00;;;;;;5381294;26;20851;-86
2024/04/18 10:44:54;;;;;;;8.27;4.40;;;8.70;98.00;;;;;;5380042;26;20875;-87
2024/04/18 10:47:23;;;;;;;7.40;4.10;;;8.60;98.00;;;;;;5380798;26;20522;-86
2024/04/18 10:49:56;;;;;;;5.07;3.10;;;8.40;98.00;;;;;;5381102;26;20518;-86
2024/04/18 10:52:24;;;;;;;5.50;3.20;;;8.10;98.00;;;;;;5380656;26;20500;-86
2024/04/18 10:54:53;;;;;;;4.47;3.07;;;8.00;98.00;;;;;;5379668;26;20566;-86
2024/04/18 10:57:22;;;;;;;6.50;3.40;;;8.00;98.00;;;;;;5380643;26;20584;-86
2024/04/18 10:59:51;;;;;;;4.90;2.87;;;7.90;98.00;;;;;;5381199;26;20473;-86
2024/04/18 11:02:19;;;;;;;4.80;2.97;;;8.10;98.00;;;;;;5380414;26;20463;-86
2024/04/18 11:04:48;;;;;;;4.97;2.87;;;8.30;98.00;;;;;;5380085;26;21049;-86
2024/04/18 11:07:21;;;;;;;3.97;2.53;;;8.50;98.00;;;;;;5380428;26;20468;-86
2024/04/18 11:09:49;;;;;;;4.60;2.83;;;9.00;98.00;;;;;;5380467;26;20680;-87
2024/04/18 11:12:18;;;;;;;6.30;2.90;;;9.60;98.00;;;;;;5380327;26;21039;-87
2024/04/18 11:14:48;;;;;;;4.17;2.60;;;10.20;98.00;;;;;;5382082;26;20500;-86
2024/04/18 11:17:17;;;;;;;4.70;3.20;;;10.90;98.00;;;;;;5380522;26;20583;-86
2024/04/18 11:20:11;;;;;;;4.80;2.97;;;11.10;98.00;;;;;;5349369;26;20462;-87
2024/04/18 11:22:44;;;;;;;4.90;2.87;;;11.20;98.00;;;;;;5381654;26;20485;-86
2024/04/18 11:25:14;;;;;;;5.00;3.13;;;11.70;98.00;;;;;;5380289;26;20511;-86
2024/04/18 11:27:43;;;;;;;5.67;3.40;;;11.40;98.00;;;;;;5380288;26;20975;-86
2024/04/18 11:30:18;;;;;;;10.50;3.20;;;11.50;98.00;;;;;;5380163;26;21037;-87
2024/04/18 11:32:55;;;;;;;5.33;3.63;;;12.00;98.00;;;;;;5379484;26;20902;-86
2024/04/18 11:35:24;;;;;;;6.17;3.70;;;12.20;98.00;;;;;;5380243;26;20463;-86
2024/04/18 11:37:57;;;;;;;5.60;3.50;;;12.00;98.00;;;;;;5380151;26;20474;-86
2024/04/18 11:40:26;;;;;;;5.83;3.40;;;12.50;98.00;;;;;;5379860;26;20473;-86
2024/04/18 11:42:55;;;;;;;6.93;3.70;;;12.80;98.00;;;;;;5379742;26;20453;-87
2024/04/18 11:45:24;;;;;;;6.03;3.70;;;12.70;98.00;;;;;;5379407;26;21066;-86
2024/04/18 11:47:58;;;;;;;5.57;3.67;;;12.60;98.00;;;;;;5380179;26;20453;-86
2024/04/18 11:50:27;;;;;;;15.80;8.20;;;12.30;98.00;;;;;;5379737;26;20490;-87
2024/04/18 11:55:55;;;;;;;7.53;4.00;;;11.80;98.00;;;;;;5379445;26;20469;-87
2024/04/18 11:58:24;;;;;;;6.83;3.60;;;12.30;98.00;;;;;;5380361;26;20455;-87
2024/04/18 12:00:52;;;;;;;4.60;3.33;;;12.90;98.00;;;;;;5379729;26;20532;-86
2024/04/18 12:03:23;;;;;;;10.63;4.20;;;13.00;98.00;;;;;;5379281;26;20509;-86
2024/04/18 12:05:52;;;;;;;7.70;4.23;;;12.40;98.00;;;;;;5379921;26;20558;-86
2024/04/18 12:08:23;;;;;;;10.17;4.40;;;12.20;98.00;;;;;;5379422;26;20456;-86
2024/04/18 12:10:52;;;;;;;6.70;4.07;;;13.00;98.00;;;;;;5379659;26;20873;-86
2024/04/18 12:13:21;;;;;;;8.23;5.00;;;12.60;98.00;;;;;;5377890;26;20794;-86
2024/04/18 12:15:47;;;;;;;6.10;3.80;;;12.10;98.00;;;;;;5380052;26;20515;-87
2024/04/18 12:18:15;;;;;;;8.30;4.50;;;11.70;98.00;;;;;;5380725;26;20512;-87
2024/04/18 12:20:45;;;;;;;8.37;4.60;;;11.60;98.00;;;;;;5379796;26;20865;-86
2024/04/18 12:23:14;;;;;;;8.10;5.30;;;11.30;98.00;;;;;;5379001;26;20502;-87
2024/04/18 12:25:45;;;;;;;8.13;4.43;;;11.10;98.00;;;;;;5379468;26;20463;-86
2024/04/18 12:31:03;;;;;;;8.67;4.43;;;10.50;98.00;;;;;;5377944;26;20990;-86
2024/04/18 12:33:32;;;;;;;7.83;4.33;;;10.40;98.00;;;;;;5378575;26;20509;-87
2024/04/18 12:36:01;;;;;;;8.40;4.80;;;10.50;98.00;;;;;;5379265;26;20502;-86
2024/04/18 12:38:29;;;;;;;8.50;4.67;;;10.60;98.00;;;;;;5379178;26;20462;-86
2024/04/18 12:41:02;;;;;;;7.10;4.17;;;10.80;98.00;;;;;;5379211;26;20472;-87
2024/04/18 12:43:32;;;;;;;8.57;4.83;;;10.80;98.00;;;;;;5378105;26;20455;-86
2024/04/18 12:46:01;;;;;;;10.40;5.27;;;11.00;98.00;;;;;;5379301;26;20971;-86
2024/04/18 12:48:30;;;;;;;8.60;5.10;;;11.20;98.00;;;;;;5379053;26;20467;-86
2024/04/18 12:51:01;;;;;;;8.43;5.10;;;11.60;98.00;;;;;;5379234;26;21010;-87
2024/04/18 12:53:32;;;;;;;8.43;4.67;;;11.70;98.00;;;;;;5377695;26;21046;-87
2024/04/18 12:56:04;;;;;;;9.00;4.87;;;11.80;98.00;;;;;;5379090;26;20471;-87
2024/04/18 12:58:32;;;;;;;8.90;4.70;;;11.80;98.00;;;;;;5378746;26;21090;-86
2024/04/18 13:01:01;;;;;;;7.73;4.60;;;11.70;98.00;;;;;;5378732;26;20513;-86
2024/04/18 13:03:30;;;;;;;7.37;3.80;;;11.50;98.00;;;;;;5377735;26;20459;-86
2024/04/18 13:05:59;;;;;;;7.10;3.87;;;11.00;98.00;;;;;;5379223;26;20456;-86
2024/04/18 13:08:29;;;;;;;8.30;4.20;;;11.20;98.00;;;;;;5378358;26;20505;-86
2024/04/18 13:10:58;;;;;;;7.87;4.20;;;11.50;98.00;;;;;;5379211;26;20466;-87
2024/04/18 13:13:29;;;;;;;7.87;4.20;;;11.70;98.00;;;;;;5378486;26;21034;-87
2024/04/18 13:15:58;;;;;;;8.60;4.73;;;11.50;98.00;;;;;;5379104;26;20516;-86
2024/04/18 13:18:26;;;;;;;8.00;3.97;;;11.90;98.00;;;;;;5378491;26;20513;-86
2024/04/18 13:20:55;;;;;;;6.73;3.70;;;12.80;98.00;;;;;;5378455;26;20547;-87
2024/04/18 13:23:24;;;;;;;4.50;3.40;;;13.40;98.00;;;;;;5380339;26;20842;-86